Time;durP1;ratioP1;P1;durP2;ratioP2;P2;SDS_P1;SDS_P2;PMS_P1;PMS_P2;Temp;Humidity;BMP_temperature;BMP_pressure;BME280_temperature;BME280_humidity;BME280_pressure;Samples;Min_cycle;Max_cycle;Signal;HPM_P1;HPM_P2
2022/11/11 00:07:24;;;;;;;0.70;0.70;;;;;;;8.68;65.42;102013.28;18562174;32;20182;-60
2022/11/11 00:27:49;;;;;;;1.00;0.80;;;;;;;8.30;65.36;102036.31;18561321;32;20092;-60
2022/11/11 00:37:54;;;;;;;0.80;0.80;;;;;;;8.27;65.35;102042.31;18561096;32;20145;-60
2022/11/11 00:58:19;;;;;;;0.80;0.60;;;;;;;7.95;65.70;102051.59;18560401;32;20102;-60
2022/11/11 01:08:25;;;;;;;0.60;0.60;;;;;;;7.67;65.86;102048.00;18559789;31;20096;-60
2022/11/11 01:18:30;;;;;;;0.93;0.93;;;;;;;7.66;65.70;102034.13;18559254;32;20144;-59
2022/11/11 01:28:34;;;;;;;0.88;0.88;;;;;;;7.58;65.31;102044.25;18558467;32;20096;-60
2022/11/11 01:38:39;;;;;;;1.45;1.40;;;;;;;7.13;66.33;102049.50;18558097;32;20102;-59
2022/11/11 01:59:12;;;;;;;2.53;1.27;;;;;;;6.95;65.89;102050.56;18556692;32;20104;-60
2022/11/11 02:09:15;;;;;;;0.57;0.57;;;;;;;7.13;65.60;102057.28;18556170;32;20102;-59
2022/11/11 02:19:27;;;;;;;0.60;0.60;;;;;;;6.38;67.41;102064.69;18562261;32;20088;-59
2022/11/11 02:29:31;;;;;;;0.70;0.70;;;;;;;6.77;66.33;102064.56;18564865;32;20635;-59
2022/11/11 02:39:37;;;;;;;0.98;0.98;;;;;;;6.84;65.60;102070.00;18564717;32;20376;-59
2022/11/11 02:50:02;;;;;;;1.48;1.42;;;;;;;6.71;66.17;102074.69;18564641;32;20092;-59
2022/11/11 03:00:06;;;;;;;2.80;2.55;;;;;;;6.66;66.17;102084.00;18564116;32;20113;-59
2022/11/11 03:10:11;;;;;;;0.65;0.65;;;;;;;6.66;65.86;102084.00;18564018;32;20411;-59
2022/11/11 03:30:39;;;;;;;0.50;0.50;;;;;;;6.21;67.28;102121.94;18563144;32;20092;-60
2022/11/11 03:40:42;;;;;;;0.80;0.80;;;;;;;6.32;66.82;102125.00;18563004;32;20092;-59
2022/11/11 03:50:48;;;;;;;2.75;2.55;;;;;;;6.18;67.08;102119.22;18573172;31;20136;-59
2022/11/11 04:00:51;;;;;;;2.33;2.22;;;;;;;6.25;66.74;102129.00;18627869;31;20103;-59
2022/11/11 04:10:56;;;;;;;0.80;0.80;;;;;;;5.85;67.50;102137.56;18627776;31;20092;-59
2022/11/11 04:31:21;;;;;;;0.98;0.98;;;;;;;5.66;68.42;102157.47;18627881;31;20096;-59
2022/11/11 04:41:24;;;;;;;0.77;0.65;;;;;;;5.79;67.37;102152.88;18626186;31;20359;-59
2022/11/11 05:12:31;;;;;;;0.60;0.60;;;;;;;5.83;67.08;102171.22;18625320;31;19972;-59
2022/11/11 05:22:36;;;;;;;0.40;0.40;;;;;;;5.55;67.46;102169.94;18624372;31;20111;-59
2022/11/11 05:32:41;;;;;;;1.00;1.00;;;;;;;5.63;67.69;102161.63;18623397;31;20136;-59
2022/11/11 05:42:44;;;;;;;0.70;0.70;;;;;;;5.75;67.55;102163.91;18623108;31;20096;-59
2022/11/11 05:52:57;;;;;;;0.82;0.82;;;;;;;6.03;67.66;102178.16;18627013;31;20102;-59
2022/11/11 06:03:05;;;;;;;0.93;0.93;;;;;;;6.34;68.87;102185.59;18631438;31;20345;-59
2022/11/11 06:13:12;;;;;;;0.88;0.88;;;;;;;6.67;69.20;102187.00;18632024;31;20094;-59
2022/11/11 06:23:15;;;;;;;1.00;1.00;;;;;;;7.00;69.23;102197.00;18630658;31;20103;-59
2022/11/11 06:33:20;;;;;;;0.60;0.60;;;;;;;7.23;69.63;102223.06;18631186;31;20420;-60
2022/11/11 06:43:24;;;;;;;3.20;1.92;;;;;;;7.49;70.29;102216.31;18629757;31;20110;-60
2022/11/11 06:53:29;;;;;;;0.60;0.60;;;;;;;7.97;69.97;102229.41;18629806;31;20487;-59
2022/11/11 07:03:32;;;;;;;0.60;0.60;;;;;;;8.05;70.50;102246.16;18629406;31;20088;-59
2022/11/11 07:13:37;;;;;;;1.23;1.12;;;;;;;8.17;71.07;102264.84;18630512;31;20164;-60
2022/11/11 07:23:40;;;;;;;0.85;0.85;;;;;;;8.28;71.92;102269.56;18629111;31;20091;-60
2022/11/11 07:33:44;;;;;;;1.17;0.95;;;;;;;8.44;71.57;102279.72;18613132;31;20096;-60
2022/11/11 07:43:47;;;;;;;0.80;0.80;;;;;;;8.77;71.32;102301.72;18628223;31;20094;-59
2022/11/11 07:53:52;;;;;;;1.45;1.35;;;;;;;8.70;71.82;102305.84;18627279;31;20092;-59
2022/11/11 08:03:55;;;;;;;0.60;0.60;;;;;;;9.12;70.84;102311.66;18624043;31;20419;-60
2022/11/11 08:14:00;;;;;;;0.50;0.50;;;;;;;9.15;71.71;102320.47;18625803;31;20096;-60
2022/11/11 08:24:03;;;;;;;2.78;2.47;;;;;;;9.56;69.95;102320.06;18625315;31;20088;-60
2022/11/11 08:34:28;;;;;;;0.80;0.80;;;;;;;9.72;70.08;102320.56;18626850;31;20100;-60
2022/11/11 08:44:31;;;;;;;1.25;1.10;;;;;;;10.12;69.75;102327.03;18625548;31;20607;-60
2022/11/11 08:54:36;;;;;;;0.50;0.50;;;;;;;10.35;70.09;102325.94;18623746;31;20123;-60
2022/11/11 09:04:39;;;;;;;0.65;0.65;;;;;;;10.51;69.79;102324.69;18624066;31;20120;-60
2022/11/11 09:14:49;;;;;;;0.60;0.60;;;;;;;10.46;69.96;102332.41;18617566;31;20140;-60
2022/11/11 09:24:53;;;;;;;1.35;1.08;;;;;;;10.36;71.16;102326.00;18609441;31;20160;-60
2022/11/11 09:34:57;;;;;;;2.95;1.15;;;;;;;10.81;69.54;102336.88;18630527;31;20185;-60
2022/11/11 09:45:18;;;;;;;0.85;0.85;;;;;;;10.44;72.29;102325.41;18631650;31;20145;-60
2022/11/11 09:55:26;;;;;;;0.80;0.80;;;;;;;10.66;72.46;102319.94;18629357;31;20143;-60
2022/11/11 10:05:34;;;;;;;1.37;1.20;;;;;;;11.17;70.90;102315.19;18630464;31;20126;-60
2022/11/11 10:15:43;;;;;;;1.02;1.02;;;;;;;12.07;68.48;102299.06;18630276;31;20394;-60
2022/11/11 10:25:52;;;;;;;1.45;0.50;;;;;;;12.78;65.77;102283.00;18629538;31;20496;-60
2022/11/11 10:35:57;;;;;;;0.85;0.80;;;;;;;13.03;64.55;102262.50;18628904;31;20201;-61
2022/11/11 10:46:05;;;;;;;0.65;0.55;;;;;;;13.89;62.35;102283.12;18629351;31;20136;-60
2022/11/11 10:56:16;;;;;;;0.98;0.98;;;;;;;14.91;60.46;102291.34;18630661;31;20088;-61
2022/11/11 11:06:23;;;;;;;1.00;0.90;;;;;;;14.83;58.85;102257.13;18629382;31;20088;-61
2022/11/11 11:16:36;;;;;;;1.37;0.90;;;;;;;14.90;58.31;102237.00;18630065;31;20348;-61
2022/11/11 11:26:44;;;;;;;0.50;0.50;;;;;;;15.24;57.32;102223.25;18628912;31;20084;-61
2022/11/11 11:37:01;;;;;;;0.57;0.57;;;;;;;15.13;57.03;102228.47;18628287;31;20111;-61
2022/11/11 11:47:13;;;;;;;0.50;0.50;;;;;;;14.21;59.16;102243.25;18627172;31;20087;-61
2022/11/11 11:57:25;;;;;;;0.65;0.65;;;;;;;14.94;55.94;102240.56;18612401;31;20116;-61
2022/11/11 12:07:50;;;;;;;0.62;0.62;;;;;;;14.29;58.72;102248.62;18627607;31;20390;-61
2022/11/11 12:18:08;;;;;;;0.55;0.55;;;;;;;15.36;56.34;102225.97;18612630;31;20094;-61
2022/11/11 12:28:21;;;;;;;0.60;0.60;;;;;;;15.14;56.73;102242.47;18613326;31;20106;-61
2022/11/11 12:38:38;;;;;;;0.30;0.30;;;;;;;15.30;55.82;102238.22;18626768;31;20107;-61
2022/11/11 12:48:53;;;;;;;2.40;0.95;;;;;;;15.72;54.95;102217.41;18626388;31;20087;-61
2022/11/11 12:59:03;;;;;;;0.52;0.52;;;;;;;15.72;55.08;102242.00;18625437;31;20170;-61
2022/11/11 13:09:19;;;;;;;0.28;0.28;;;;;;;16.11;54.05;102200.06;18624508;31;20161;-61
2022/11/11 13:19:31;;;;;;;0.35;0.35;;;;;;;16.56;52.84;102199.31;18610195;31;20141;-61
2022/11/11 13:30:11;;;;;;;0.50;0.50;;;;;;;16.74;51.51;102204.59;18609502;31;20107;-61
2022/11/11 13:40:30;;;;;;;0.30;0.30;;;;;;;16.70;52.09;102197.56;18608498;31;20170;-61
2022/11/11 13:50:36;;;;;;;0.50;0.50;;;;;;;16.67;50.46;102188.78;18607784;31;20220;-61
2022/11/11 14:00:41;;;;;;;0.30;0.30;;;;;;;16.50;51.70;102182.63;18622190;31;20089;-61
2022/11/11 14:10:52;;;;;;;0.28;0.28;;;;;;;16.26;51.67;102185.19;18608150;31;20375;-61
2022/11/11 14:20:57;;;;;;;0.30;0.30;;;;;;;16.29;51.31;102174.66;18616097;31;20447;-61
2022/11/11 14:31:38;;;;;;;0.37;0.37;;;;;;;15.86;52.51;102160.44;18606806;31;20104;-61
2022/11/11 14:41:48;;;;;;;0.40;0.40;;;;;;;15.79;52.94;102163.94;18605473;31;20117;-61
2022/11/11 14:51:55;;;;;;;0.62;0.62;;;;;;;15.49;53.95;102160.28;18614898;31;20365;-61
2022/11/11 15:01:59;;;;;;;0.40;0.40;;;;;;;15.31;54.65;102161.94;18629057;31;20490;-61
2022/11/11 15:12:07;;;;;;;0.40;0.40;;;;;;;15.17;54.81;102153.03;18628520;31;20468;-61
2022/11/11 15:22:26;;;;;;;0.40;0.40;;;;;;;14.61;56.44;102169.25;18614088;31;20099;-61
2022/11/11 15:32:57;;;;;;;0.50;0.50;;;;;;;14.08;57.67;102162.56;18628711;31;20092;-60
2022/11/11 15:43:02;;;;;;;0.50;0.50;;;;;;;13.80;58.27;102164.84;18628314;31;20088;-60
2022/11/11 15:53:12;;;;;;;0.47;0.47;;;;;;;13.54;58.57;102171.53;18611973;31;20088;-60
2022/11/11 16:03:19;;;;;;;1.15;1.10;;;;;;;12.93;60.04;102180.19;18610634;31;20114;-61
2022/11/11 16:13:24;;;;;;;1.42;1.33;;;;;;;12.60;60.74;102199.72;18627913;31;20115;-60
2022/11/11 16:23:28;;;;;;;2.15;1.48;;;;;;;12.24;61.72;102201.69;18622923;31;156213;-61
2022/11/11 16:33:33;;;;;;;1.50;1.40;;;;;;;11.92;62.08;102191.38;18627388;31;20153;-60
2022/11/11 16:43:42;;;;;;;2.15;1.27;;;;;;;11.60;62.25;102188.97;18626601;31;20107;-61
2022/11/11 16:53:48;;;;;;;0.88;0.80;;;;;;;11.38;62.79;102185.84;18626213;31;20426;-60
2022/11/11 17:03:57;;;;;;;1.65;1.35;;;;;;;11.18;63.06;102178.41;18612212;31;20432;-60
2022/11/11 17:14:00;;;;;;;0.62;0.62;;;;;;;10.61;64.80;102183.09;18625228;31;20087;-60
2022/11/11 17:24:05;;;;;;;0.55;0.55;;;;;;;10.81;63.77;102164.44;18624462;31;20113;-60
2022/11/11 17:34:09;;;;;;;0.50;0.50;;;;;;;10.62;64.00;102165.72;18623703;31;20100;-60
2022/11/11 17:44:15;;;;;;;1.55;1.45;;;;;;;10.29;64.94;102162.22;18605862;31;20371;-60
2022/11/11 17:54:19;;;;;;;1.48;0.90;;;;;;;10.31;64.30;102149.22;18630228;31;20088;-60
2022/11/11 18:04:24;;;;;;;27.67;6.60;;;;;;;10.05;65.09;102151.97;18617750;31;20431;-60
2022/11/11 18:14:27;;;;;;;1.30;1.30;;;;;;;10.07;65.00;102139.84;18631949;31;20099;-60
2022/11/11 18:24:32;;;;;;;5.10;2.53;;;;;;;10.06;65.53;102135.47;18630615;31;20405;-60
2022/11/11 18:34:35;;;;;;;2.55;2.35;;;;;;;10.03;65.76;102130.19;18615859;31;20118;-60
2022/11/11 18:44:39;;;;;;;2.35;2.10;;;;;;;10.23;65.85;102117.66;18630043;31;20087;-60
2022/11/11 18:54:43;;;;;;;12.40;2.58;;;;;;;10.03;66.63;102128.44;18608399;31;20345;-60
2022/11/11 19:04:48;;;;;;;4.20;3.85;;;;;;;10.01;66.69;102127.53;18602137;31;20114;-60
2022/11/11 19:14:51;;;;;;;3.85;2.05;;;;;;;9.95;66.43;102124.72;18563657;32;20089;-60
2022/11/11 19:24:58;;;;;;;7.43;3.78;;;;;;;9.84;66.37;102127.06;18563458;32;20100;-60
2022/11/11 19:35:02;;;;;;;9.02;3.15;;;;;;;9.85;66.49;102132.28;18563205;32;20110;-60
2022/11/11 19:45:08;;;;;;;2.72;2.50;;;;;;;9.77;65.88;102117.28;18549154;32;20409;-60
2022/11/11 19:55:11;;;;;;;5.50;3.60;;;;;;;9.54;66.61;102131.41;18562700;32;20084;-60
2022/11/11 20:05:17;;;;;;;2.33;1.77;;;;;;;9.37;66.93;102128.31;18547906;32;20132;-60
2022/11/11 20:15:22;;;;;;;9.60;5.32;;;;;;;9.31;66.55;102120.28;18562161;32;20088;-60
2022/11/11 20:25:26;;;;;;;5.87;4.43;;;;;;;9.40;66.28;102130.12;18561875;32;20104;-60
2022/11/11 20:35:29;;;;;;;4.80;4.40;;;;;;;9.13;66.66;102134.50;18561522;32;20100;-60
2022/11/11 20:45:41;;;;;;;4.78;4.03;;;;;;;9.15;66.66;102140.66;18561504;31;20365;-60
2022/11/11 20:55:44;;;;;;;3.92;2.70;;;;;;;9.05;66.68;102148.13;18560888;32;20141;-60
2022/11/11 21:05:49;;;;;;;4.70;4.18;;;;;;;8.70;67.15;102159.16;18560261;31;20080;-60
2022/11/11 21:15:53;;;;;;;3.85;3.37;;;;;;;8.68;66.91;102158.19;18570357;31;20095;-60
2022/11/11 21:26:02;;;;;;;3.53;2.85;;;;;;;8.69;66.48;102155.66;18608771;31;20497;-60
2022/11/11 21:36:07;;;;;;;2.53;2.28;;;;;;;8.61;66.80;102144.09;18611309;31;20132;-60
2022/11/11 21:46:13;;;;;;;7.85;7.10;;;;;;;8.46;66.41;102147.91;18638510;31;20092;-60
2022/11/11 21:56:17;;;;;;;4.87;4.25;;;;;;;8.29;67.01;102139.50;18636870;31;20106;-60
2022/11/11 22:06:22;;;;;;;1.77;1.65;;;;;;;8.17;67.15;102163.41;18643916;31;20100;-60
2022/11/11 22:16:26;;;;;;;4.68;4.32;;;;;;;8.23;67.16;102159.22;18631166;31;20093;-60
2022/11/11 22:26:34;;;;;;;1.45;1.30;;;;;;;8.39;67.21;102143.31;18577231;32;20096;-60
2022/11/11 22:36:38;;;;;;;1.15;1.15;;;;;;;8.45;68.41;102140.06;18568091;32;20114;-60
2022/11/11 22:46:42;;;;;;;2.25;2.05;;;;;;;8.39;68.64;102139.81;18564485;32;20449;-60
2022/11/11 22:56:45;;;;;;;2.25;2.10;;;;;;;8.44;68.41;102120.06;18564661;32;20460;-60
2022/11/11 23:06:50;;;;;;;3.00;2.75;;;;;;;8.45;68.29;102130.53;18564117;32;20089;-60
2022/11/11 23:16:53;;;;;;;1.17;1.17;;;;;;;8.60;68.08;102098.06;18565006;32;20106;-60
2022/11/11 23:26:58;;;;;;;2.05;1.95;;;;;;;8.62;67.78;102106.81;18564923;32;20131;-60
2022/11/11 23:37:01;;;;;;;6.80;4.35;;;;;;;8.77;67.48;102105.56;18563347;32;20108;-60
2022/11/11 23:47:11;;;;;;;2.30;2.10;;;;;;;8.70;67.99;102094.06;18562009;31;20103;-60
2022/11/11 23:57:14;;;;;;;1.60;1.50;;;;;;;8.85;67.74;102098.88;18562960;32;20119;-60
